Time;durP1;ratioP1;P1;durP2;ratioP2;P2;SDS_P1;SDS_P2;PMS_P1;PMS_P2;Temp;Humidity;BMP_temperature;BMP_pressure;BME280_temperature;BME280_humidity;BME280_pressure;Samples;Min_cycle;Max_cycle;Signal;HPM_P1;HPM_P2
2023/06/10 01:59:30;;;;;;;19.50;18.50;;;16.60;99.90;;;;;;6002847;23;20409;-72
2023/06/10 02:01:57;;;;;;;19.53;18.43;;;16.50;99.90;;;;;;4948077;28;20476;-72
2023/06/10 02:04:24;;;;;;;21.13;19.93;;;16.40;99.90;;;;;;4951426;29;20484;-72
2023/06/10 02:06:51;;;;;;;22.30;20.97;;;16.40;99.90;;;;;;4951835;29;20457;-72
2023/06/10 02:09:18;;;;;;;19.20;17.97;;;16.40;99.90;;;;;;4951998;29;20456;-72
2023/06/10 02:11:45;;;;;;;19.23;18.03;;;16.60;99.90;;;;;;4951619;29;20797;-72
2023/06/10 02:14:12;;;;;;;20.43;19.00;;;16.40;99.90;;;;;;4951514;29;20657;-72
2023/06/10 02:16:40;;;;;;;19.10;18.10;;;16.40;99.90;;;;;;4951553;29;20462;-72
2023/06/10 02:19:07;;;;;;;20.43;19.23;;;16.40;99.90;;;;;;4951605;28;20448;-72
2023/06/10 02:21:34;;;;;;;19.70;18.70;;;16.40;99.90;;;;;;4951770;29;20467;-73
2023/06/10 02:24:01;;;;;;;20.73;19.30;;;16.30;99.90;;;;;;4951512;28;20871;-72
2023/06/10 02:26:27;;;;;;;20.33;19.03;;;16.20;99.90;;;;;;4951425;29;20513;-72
2023/06/10 02:28:54;;;;;;;20.50;19.17;;;16.20;99.90;;;;;;4951469;29;20456;-72
2023/06/10 02:31:21;;;;;;;19.90;18.90;;;16.20;99.90;;;;;;4951464;29;20508;-72
2023/06/10 02:33:49;;;;;;;18.73;17.63;;;16.30;99.90;;;;;;4951623;29;20448;-72
2023/06/10 02:36:16;;;;;;;19.67;18.57;;;16.30;99.90;;;;;;4951268;29;20818;-73
2023/06/10 02:38:43;;;;;;;20.00;18.90;;;16.30;99.90;;;;;;4951311;29;20475;-72
2023/06/10 02:41:09;;;;;;;20.07;18.47;;;16.20;99.90;;;;;;4951238;29;20718;-72
2023/06/10 02:43:36;;;;;;;19.33;18.30;;;16.20;99.90;;;;;;4951297;29;20463;-72
2023/06/10 02:46:03;;;;;;;21.03;19.83;;;16.10;99.90;;;;;;4951348;29;20503;-72
2023/06/10 02:48:29;;;;;;;21.70;20.30;;;16.10;99.90;;;;;;4951268;29;20453;-73
2023/06/10 02:50:57;;;;;;;20.10;19.00;;;16.10;99.90;;;;;;4951139;29;20839;-72
2023/06/10 02:53:24;;;;;;;18.67;17.53;;;16.20;99.90;;;;;;4951306;29;20467;-72
2023/06/10 02:55:51;;;;;;;20.33;19.30;;;16.30;99.90;;;;;;4951335;29;20452;-72
2023/06/10 02:58:17;;;;;;;19.53;18.33;;;16.20;99.90;;;;;;4951300;28;20452;-72
2023/06/10 03:00:45;;;;;;;19.63;18.50;;;16.40;99.90;;;;;;4950813;29;20487;-72
2023/06/10 03:03:12;;;;;;;18.63;17.40;;;16.50;99.90;;;;;;4950952;29;20681;-72
2023/06/10 03:05:40;;;;;;;19.70;18.70;;;16.60;99.90;;;;;;4951078;28;20607;-72
2023/06/10 03:08:08;;;;;;;18.50;17.50;;;16.60;99.90;;;;;;4954682;29;20466;-72
2023/06/10 03:10:34;;;;;;;18.67;17.47;;;16.60;99.90;;;;;;4954856;29;20475;-72
2023/06/10 03:13:01;;;;;;;19.83;18.73;;;16.50;99.90;;;;;;4954457;29;20452;-72
2023/06/10 03:15:28;;;;;;;18.63;17.73;;;16.50;99.90;;;;;;4954353;29;20448;-72
2023/06/10 03:17:55;;;;;;;18.57;17.47;;;16.50;99.90;;;;;;4954562;29;20457;-72
2023/06/10 03:20:23;;;;;;;18.50;17.60;;;16.40;99.90;;;;;;4954354;28;20452;-73
2023/06/10 03:22:49;;;;;;;19.63;18.13;;;16.30;99.90;;;;;;4954701;28;20822;-72
2023/06/10 03:25:17;;;;;;;20.70;19.17;;;16.30;99.90;;;;;;4954158;29;20492;-72
2023/06/10 03:27:44;;;;;;;18.47;17.27;;;16.30;99.90;;;;;;4953898;29;20448;-72
2023/06/10 03:30:13;;;;;;;18.67;17.57;;;16.20;99.90;;;;;;4954147;29;20457;-74
2023/06/10 03:32:40;;;;;;;19.80;18.70;;;16.20;99.90;;;;;;4953990;28;20712;-72
2023/06/10 03:35:08;;;;;;;20.17;19.00;;;16.00;99.90;;;;;;4953712;29;20457;-72
2023/06/10 03:37:35;;;;;;;19.60;18.60;;;16.10;99.90;;;;;;4953967;29;20453;-72
2023/06/10 03:40:03;;;;;;;21.33;20.10;;;16.10;99.90;;;;;;4953840;29;20451;-72
2023/06/10 03:42:31;;;;;;;19.57;18.50;;;16.10;99.90;;;;;;4954000;29;21037;-72
2023/06/10 03:44:58;;;;;;;20.67;19.50;;;16.10;99.90;;;;;;4953880;29;20511;-72
2023/06/10 03:47:24;;;;;;;20.43;19.13;;;16.00;99.90;;;;;;4953933;29;20623;-72
2023/06/10 03:49:51;;;;;;;19.00;18.00;;;15.90;99.90;;;;;;4953844;29;20457;-72
2023/06/10 03:52:18;;;;;;;20.90;19.53;;;16.30;99.90;;;;;;4954215;29;20457;-72
2023/06/10 03:54:45;;;;;;;20.33;18.73;;;16.10;99.90;;;;;;4954158;29;20449;-71
2023/06/10 03:57:12;;;;;;;19.73;18.67;;;16.10;99.90;;;;;;4953946;29;20449;-72
2023/06/10 03:59:40;;;;;;;20.90;18.87;;;16.20;99.90;;;;;;4953397;28;20480;-72
2023/06/10 04:02:08;;;;;;;20.43;19.23;;;16.30;99.90;;;;;;4953812;29;20456;-72
2023/06/10 04:04:36;;;;;;;20.90;19.50;;;16.30;99.90;;;;;;4953788;29;20457;-71
2023/06/10 04:07:03;;;;;;;18.33;17.33;;;16.40;99.90;;;;;;4953832;28;20827;-72
2023/06/10 04:09:29;;;;;;;20.00;18.90;;;16.50;99.90;;;;;;4953580;29;20484;-72
2023/06/10 04:11:56;;;;;;;18.37;17.47;;;16.50;99.90;;;;;;4953583;29;20476;-72
2023/06/10 04:14:23;;;;;;;18.30;17.40;;;16.50;99.90;;;;;;4953507;29;20449;-72
2023/06/10 04:16:51;;;;;;;19.50;18.33;;;16.50;99.90;;;;;;4953346;28;20958;-71
2023/06/10 04:19:17;;;;;;;19.20;17.93;;;16.40;99.90;;;;;;4953633;29;20990;-72
2023/06/10 04:21:44;;;;;;;19.87;18.87;;;16.60;99.90;;;;;;4953507;29;20451;-72
2023/06/10 04:24:11;;;;;;;18.60;17.57;;;16.80;99.90;;;;;;4953416;29;20448;-73
2023/06/10 04:26:39;;;;;;;18.93;17.80;;;17.40;99.90;;;;;;4953529;29;20488;-72
2023/06/10 04:29:05;;;;;;;18.30;17.30;;;18.00;99.90;;;;;;4953633;29;20448;-72
2023/06/10 04:31:32;;;;;;;17.57;16.67;;;18.80;99.90;;;;;;4953881;29;20449;-72
2023/06/10 04:34:01;;;;;;;18.47;17.17;;;19.40;99.90;;;;;;4953358;28;20492;-72
2023/06/10 04:36:29;;;;;;;17.27;16.27;;;19.90;99.90;;;;;;4953339;29;20452;-72
2023/06/10 04:38:55;;;;;;;17.30;16.30;;;20.10;99.90;;;;;;4953238;29;20456;-72
2023/06/10 04:41:23;;;;;;;17.00;16.23;;;20.70;99.90;;;;;;4953152;29;20749;-72
2023/06/10 04:43:49;;;;;;;18.30;17.20;;;21.20;99.90;;;;;;4952582;29;20457;-72
2023/06/10 04:46:16;;;;;;;17.40;16.43;;;21.40;99.90;;;;;;4953006;29;20496;-72
2023/06/10 04:48:46;;;;;;;17.97;17.03;;;21.80;99.90;;;;;;4947401;29;20480;-73
2023/06/10 04:51:14;;;;;;;18.07;17.07;;;22.30;99.90;;;;;;4953140;29;20479;-73
2023/06/10 04:53:41;;;;;;;18.20;16.80;;;22.70;99.90;;;;;;4953142;29;20473;-72
2023/06/10 04:56:08;;;;;;;17.37;16.47;;;23.00;99.90;;;;;;4953183;29;20452;-72
2023/06/10 04:58:35;;;;;;;18.17;17.07;;;23.40;99.40;;;;;;4953134;28;20472;-72
2023/06/10 05:01:02;;;;;;;18.00;16.60;;;23.70;98.70;;;;;;4953095;28;20855;-72
2023/06/10 05:03:29;;;;;;;19.30;17.90;;;24.10;97.50;;;;;;4952881;29;20459;-72
2023/06/10 05:05:55;;;;;;;17.70;16.50;;;23.90;97.10;;;;;;4952981;29;20801;-73
2023/06/10 05:08:23;;;;;;;18.63;17.27;;;24.10;97.00;;;;;;4950291;29;20817;-73
2023/06/10 05:10:50;;;;;;;18.83;17.70;;;24.50;96.50;;;;;;4952611;29;20464;-72
2023/06/10 05:13:17;;;;;;;18.73;17.73;;;24.60;95.80;;;;;;4952796;29;20460;-73
2023/06/10 05:15:45;;;;;;;18.60;17.57;;;25.00;95.20;;;;;;4952482;29;20452;-72
2023/06/10 05:18:12;;;;;;;17.93;16.97;;;25.10;94.80;;;;;;4952538;28;20544;-72
2023/06/10 05:20:39;;;;;;;18.30;17.10;;;25.60;94.10;;;;;;4952606;29;20966;-73
2023/06/10 05:23:06;;;;;;;17.90;17.00;;;25.60;93.10;;;;;;4952555;29;20894;-73
2023/06/10 05:25:34;;;;;;;18.57;17.40;;;25.40;93.50;;;;;;4952585;29;20575;-73
2023/06/10 05:28:01;;;;;;;17.30;16.40;;;25.10;93.30;;;;;;4952475;28;20889;-72
2023/06/10 05:30:28;;;;;;;16.90;16.00;;;25.10;93.10;;;;;;4951854;29;20462;-73
2023/06/10 05:32:56;;;;;;;16.70;15.90;;;25.30;93.00;;;;;;4950887;29;20827;-73
2023/06/10 05:35:23;;;;;;;16.93;16.03;;;25.70;92.30;;;;;;4952233;29;20461;-73
2023/06/10 05:37:49;;;;;;;17.70;16.60;;;25.90;91.70;;;;;;4952450;29;20535;-73
2023/06/10 05:40:16;;;;;;;16.90;16.10;;;26.40;90.80;;;;;;4952463;29;20464;-73
2023/06/10 05:42:44;;;;;;;17.20;16.30;;;26.40;90.20;;;;;;4952182;29;20456;-73
2023/06/10 05:45:11;;;;;;;17.70;16.50;;;26.50;90.30;;;;;;4952081;29;20934;-73
2023/06/10 05:47:38;;;;;;;17.10;16.20;;;26.80;89.30;;;;;;4952162;29;20456;-73
2023/06/10 05:50:07;;;;;;;16.27;15.37;;;27.00;88.80;;;;;;4952256;29;20455;-73
2023/06/10 05:52:33;;;;;;;15.70;14.90;;;27.10;88.80;;;;;;4952314;28;20480;-74
2023/06/10 05:55:00;;;;;;;16.50;15.70;;;27.80;85.80;;;;;;4952081;29;20459;-73
2023/06/10 05:57:27;;;;;;;15.20;14.40;;;28.00;84.50;;;;;;4951913;29;20650;-73
2023/06/10 05:59:55;;;;;;;17.20;16.30;;;28.30;82.70;;;;;;4951641;28;20488;-74
2023/06/10 06:02:22;;;;;;;16.10;15.40;;;28.40;81.70;;;;;;4952041;29;20977;-74
2023/06/10 06:04:48;;;;;;;16.03;15.30;;;28.70;80.50;;;;;;4952157;29;20475;-74
2023/06/10 06:07:15;;;;;;;16.67;15.77;;;28.70;79.90;;;;;;4952014;29;20492;-73
2023/06/10 06:09:42;;;;;;;16.20;15.30;;;29.00;78.70;;;;;;4951848;29;20457;-74
2023/06/10 06:12:10;;;;;;;16.17;15.47;;;29.20;77.70;;;;;;4951799;29;20452;-74
2023/06/10 06:14:39;;;;;;;16.00;15.30;;;28.80;79.00;;;;;;4951739;29;20459;-74
2023/06/10 06:17:08;;;;;;;16.30;15.40;;;28.40;80.10;;;;;;4952030;28;20448;-74
2023/06/10 06:19:35;;;;;;;16.13;15.43;;;28.90;78.90;;;;;;4952064;29;20448;-74
2023/06/10 06:22:02;;;;;;;15.97;15.27;;;29.30;77.70;;;;;;4951991;29;20459;-75
2023/06/10 06:24:29;;;;;;;15.83;15.13;;;29.60;76.20;;;;;;4949941;29;20453;-73
2023/06/10 06:26:55;;;;;;;16.20;15.40;;;29.80;75.70;;;;;;4951538;29;20832;-74
2023/06/10 06:29:22;;;;;;;16.07;15.17;;;29.70;76.50;;;;;;4951596;29;20876;-74
2023/06/10 06:31:49;;;;;;;18.00;16.80;;;30.00;76.20;;;;;;4951876;29;20449;-74
2023/06/10 06:34:17;;;;;;;16.20;15.50;;;30.90;72.50;;;;;;4951739;29;20467;-76
2023/06/10 06:36:43;;;;;;;17.50;16.80;;;30.60;72.00;;;;;;4951629;29;20453;-74
2023/06/10 06:39:10;;;;;;;16.10;15.30;;;30.70;72.40;;;;;;4951520;29;20892;-77
2023/06/10 06:41:37;;;;;;;17.20;16.40;;;30.50;73.00;;;;;;4954945;28;20444;-77
2023/06/10 06:44:03;;;;;;;16.73;15.93;;;31.20;71.00;;;;;;4955580;29;20452;-77
2023/06/10 06:46:30;;;;;;;15.80;15.20;;;31.60;70.10;;;;;;4955474;29;20495;-76
2023/06/10 06:48:57;;;;;;;17.50;16.53;;;31.70;69.20;;;;;;4955307;29;20460;-77
2023/06/10 06:51:25;;;;;;;17.57;16.60;;;32.00;67.80;;;;;;4955255;29;20448;-77
2023/06/10 06:53:54;;;;;;;17.23;16.43;;;32.40;66.40;;;;;;4955240;29;20452;-76
2023/06/10 06:56:21;;;;;;;17.43;16.67;;;31.90;66.20;;;;;;4955344;29;20463;-75
2023/06/10 06:58:48;;;;;;;17.57;16.77;;;31.40;67.50;;;;;;4955213;28;20542;-76
2023/06/10 07:01:14;;;;;;;16.77;15.90;;;31.30;68.50;;;;;;4954843;29;20484;-76
2023/06/10 07:03:42;;;;;;;16.33;15.63;;;31.70;67.30;;;;;;4955016;29;20459;-76
2023/06/10 07:06:08;;;;;;;17.30;16.50;;;31.90;67.30;;;;;;4954908;29;20499;-76
2023/06/10 07:08:36;;;;;;;17.00;16.20;;;31.70;67.40;;;;;;4955199;29;20449;-76
2023/06/10 07:11:03;;;;;;;16.90;16.20;;;32.10;67.80;;;;;;4955241;29;20452;-76
2023/06/10 07:13:30;;;;;;;18.63;17.60;;;32.20;66.40;;;;;;4954861;29;20455;-76
2023/06/10 07:15:56;;;;;;;16.90;16.00;;;32.40;65.10;;;;;;4954827;29;20809;-76
2023/06/10 07:18:23;;;;;;;17.30;16.60;;;32.70;64.80;;;;;;4954779;29;20467;-76
2023/06/10 07:20:50;;;;;;;17.10;16.30;;;32.80;63.20;;;;;;4955045;29;20463;-76
2023/06/10 07:23:16;;;;;;;17.60;16.57;;;32.80;63.90;;;;;;4955030;29;20463;-76
2023/06/10 07:25:44;;;;;;;17.63;16.83;;;32.00;64.80;;;;;;4954580;29;20553;-76
2023/06/10 07:28:11;;;;;;;18.50;17.60;;;31.90;65.30;;;;;;4954654;29;20463;-77
2023/06/10 07:30:38;;;;;;;17.40;16.70;;;32.20;64.30;;;;;;4954555;29;20452;-76
2023/06/10 07:33:07;;;;;;;17.43;16.63;;;32.40;64.00;;;;;;4954782;29;20761;-76
2023/06/10 07:35:34;;;;;;;17.50;16.70;;;32.60;63.80;;;;;;4954735;29;20946;-76
2023/06/10 07:38:01;;;;;;;17.23;16.33;;;32.80;64.50;;;;;;4954594;28;20455;-76
2023/06/10 07:40:27;;;;;;;17.97;17.17;;;33.00;61.60;;;;;;4954400;29;20456;-76
2023/06/10 07:42:56;;;;;;;18.50;17.67;;;32.80;61.80;;;;;;4954422;29;20464;-76
2023/06/10 07:45:23;;;;;;;18.63;17.70;;;32.60;61.30;;;;;;4954369;29;20453;-76
2023/06/10 07:47:50;;;;;;;18.27;17.47;;;32.40;61.80;;;;;;4954505;28;20492;-76
2023/06/10 07:50:16;;;;;;;18.10;17.20;;;32.60;62.20;;;;;;4954371;29;20481;-76
2023/06/10 07:52:43;;;;;;;17.80;17.00;;;33.30;61.30;;;;;;4953501;28;20453;-76
2023/06/10 07:55:10;;;;;;;18.00;17.30;;;33.20;60.30;;;;;;4954216;29;21009;-76
2023/06/10 07:57:38;;;;;;;18.43;17.63;;;32.40;62.40;;;;;;4954246;29;20488;-78
2023/06/10 08:00:08;;;;;;;18.47;17.67;;;32.50;63.40;;;;;;4954012;28;20563;-75
2023/06/10 08:02:34;;;;;;;17.70;16.90;;;32.90;63.20;;;;;;4953127;29;20487;-76
2023/06/10 08:05:01;;;;;;;19.60;18.70;;;33.70;61.10;;;;;;4954174;29;20928;-76
2023/06/10 08:07:28;;;;;;;18.10;17.40;;;33.80;60.10;;;;;;4954036;29;20905;-76
2023/06/10 08:09:55;;;;;;;18.43;17.60;;;33.60;59.90;;;;;;4954009;29;20460;-76
2023/06/10 08:12:22;;;;;;;17.30;16.60;;;33.40;59.60;;;;;;4953813;29;20857;-76
2023/06/10 08:14:48;;;;;;;17.57;16.77;;;33.40;60.90;;;;;;4953897;29;20456;-75
2023/06/10 08:17:16;;;;;;;17.87;17.07;;;33.30;59.70;;;;;;4953739;29;20453;-76
2023/06/10 08:19:43;;;;;;;17.00;16.30;;;33.10;60.10;;;;;;4953659;29;20456;-76
2023/06/10 08:22:10;;;;;;;18.23;17.10;;;33.00;59.90;;;;;;4953667;29;20461;-76
2023/06/10 08:24:36;;;;;;;17.60;16.90;;;33.80;59.20;;;;;;4953757;29;20533;-76
2023/06/10 08:27:03;;;;;;;18.23;17.43;;;33.90;58.70;;;;;;4953592;29;20846;-75
2023/06/10 08:29:31;;;;;;;18.30;17.50;;;33.30;59.30;;;;;;4953610;29;20495;-76
2023/06/10 08:31:58;;;;;;;16.23;15.57;;;32.20;60.80;;;;;;4950831;29;20457;-76
2023/06/10 08:34:26;;;;;;;16.47;15.70;;;32.00;61.60;;;;;;4953381;29;20871;-76
2023/06/10 08:36:55;;;;;;;17.13;16.43;;;32.00;62.00;;;;;;4953171;29;20817;-76
2023/06/10 08:39:22;;;;;;;17.60;16.90;;;32.50;60.20;;;;;;4953191;29;20457;-76
2023/06/10 08:42:00;;;;;;;17.10;16.43;;;33.00;59.90;;;;;;4953347;29;20963;-75
2023/06/10 08:44:29;;;;;;;17.43;16.73;;;32.30;59.20;;;;;;4953027;29;20456;-75
2023/06/10 08:46:59;;;;;;;17.73;16.80;;;31.40;60.30;;;;;;4952913;29;20496;-75
2023/06/10 08:49:30;;;;;;;16.77;16.07;;;31.20;61.20;;;;;;4953016;29;20508;-75
2023/06/10 08:52:00;;;;;;;16.70;16.00;;;31.30;62.00;;;;;;4952872;29;20449;-76
2023/06/10 08:54:32;;;;;;;17.77;16.77;;;31.00;62.40;;;;;;4952801;29;20452;-76
2023/06/10 08:57:00;;;;;;;16.67;15.97;;;31.40;60.70;;;;;;4952929;29;20449;-75
2023/06/10 08:59:27;;;;;;;17.90;17.00;;;31.60;60.30;;;;;;4952635;28;20495;-76
2023/06/10 09:01:55;;;;;;;16.53;15.83;;;31.20;60.90;;;;;;4952748;28;20524;-77
2023/06/10 09:04:22;;;;;;;16.70;16.10;;;31.70;60.00;;;;;;4952799;28;20452;-76
2023/06/10 09:06:51;;;;;;;17.57;16.87;;;32.30;59.30;;;;;;4952946;29;21069;-75
2023/06/10 09:09:20;;;;;;;16.57;15.87;;;32.70;58.60;;;;;;4953032;29;20457;-75
2023/06/10 09:11:46;;;;;;;17.17;16.47;;;32.90;57.80;;;;;;4953065;29;20558;-76
2023/06/10 09:14:13;;;;;;;16.60;15.90;;;33.40;57.90;;;;;;4952457;29;20452;-75
2023/06/10 09:16:41;;;;;;;18.23;17.43;;;33.70;57.20;;;;;;4952590;28;20452;-76
2023/06/10 09:19:08;;;;;;;17.50;16.60;;;33.90;57.00;;;;;;4952549;29;20492;-76
2023/06/10 09:21:36;;;;;;;17.10;16.13;;;33.80;56.90;;;;;;4952760;29;20515;-76
2023/06/10 09:24:06;;;;;;;17.50;16.60;;;33.10;56.30;;;;;;4952810;29;20568;-75
2023/06/10 09:26:32;;;;;;;18.03;17.23;;;32.20;58.30;;;;;;4952555;29;20455;-75
2023/06/10 09:29:04;;;;;;;17.80;16.90;;;32.10;58.40;;;;;;4952491;29;20457;-76
2023/06/10 09:31:32;;;;;;;18.20;17.40;;;32.60;59.00;;;;;;4952710;29;20456;-75
2023/06/10 09:34:07;;;;;;;18.03;17.23;;;32.60;57.70;;;;;;4952430;29;20928;-76
2023/06/10 09:36:34;;;;;;;16.70;16.10;;;32.30;58.20;;;;;;4952775;29;20452;-76
2023/06/10 09:39:01;;;;;;;17.63;16.90;;;33.00;57.70;;;;;;4952418;29;20791;-76
2023/06/10 09:41:35;;;;;;;16.60;15.90;;;33.40;56.60;;;;;;4952171;29;20560;-76
2023/06/10 09:44:03;;;;;;;17.50;16.80;;;34.30;56.10;;;;;;4952374;29;20515;-76
2023/06/10 09:46:33;;;;;;;17.40;16.70;;;33.80;55.50;;;;;;4952197;28;20958;-76
2023/06/10 09:49:00;;;;;;;17.30;16.50;;;33.20;56.50;;;;;;4952200;29;20954;-76
2023/06/10 09:51:26;;;;;;;18.03;17.00;;;34.00;55.40;;;;;;4952135;29;20631;-76
2023/06/10 09:53:54;;;;;;;16.07;15.37;;;33.40;55.30;;;;;;4952077;29;20476;-77
2023/06/10 09:56:23;;;;;;;17.70;16.90;;;32.90;55.80;;;;;;4952021;29;20972;-76
2023/06/10 09:58:54;;;;;;;16.80;16.20;;;33.10;56.70;;;;;;4951998;28;20476;-76
2023/06/10 10:01:21;;;;;;;17.73;17.00;;;34.20;55.80;;;;;;4951862;29;20504;-76
2023/06/10 10:03:48;;;;;;;18.23;17.53;;;34.20;54.80;;;;;;4952284;29;20456;-76
2023/06/10 10:06:16;;;;;;;17.53;16.53;;;32.60;55.80;;;;;;4951990;29;20456;-75
2023/06/10 10:08:43;;;;;;;17.23;16.53;;;32.20;57.80;;;;;;4951835;29;20488;-75
2023/06/10 10:11:10;;;;;;;17.20;16.50;;;32.20;57.80;;;;;;4951876;29;20467;-76
2023/06/10 10:13:39;;;;;;;18.10;17.30;;;32.60;58.20;;;;;;4951855;29;20824;-76
2023/06/10 10:16:11;;;;;;;18.10;17.30;;;33.50;57.00;;;;;;4951482;28;20464;-76
2023/06/10 10:18:42;;;;;;;18.73;17.93;;;33.30;56.90;;;;;;4951894;29;20452;-76
2023/06/10 10:21:14;;;;;;;18.03;17.23;;;32.80;58.50;;;;;;4951892;29;20464;-76
2023/06/10 10:23:49;;;;;;;18.17;17.40;;;32.80;58.30;;;;;;4951717;29;20472;-76
2023/06/10 10:26:17;;;;;;;17.50;16.80;;;32.30;58.30;;;;;;4951980;29;20458;-75
2023/06/10 10:28:48;;;;;;;16.77;16.13;;;32.60;58.10;;;;;;4951414;29;20496;-76
2023/06/10 10:31:19;;;;;;;18.07;17.27;;;33.20;57.20;;;;;;4951783;29;20449;-76
2023/06/10 10:33:56;;;;;;;17.07;16.37;;;33.70;55.90;;;;;;4951851;29;20823;-76
2023/06/10 10:36:23;;;;;;;17.80;17.00;;;33.40;55.60;;;;;;4951820;28;20974;-76
2023/06/10 10:38:50;;;;;;;17.80;16.93;;;32.70;55.90;;;;;;4951753;28;20487;-76
2023/06/10 10:41:19;;;;;;;17.87;16.97;;;32.20;56.10;;;;;;4951721;29;20457;-75
2023/06/10 10:43:47;;;;;;;18.00;17.20;;;31.70;57.50;;;;;;4951684;29;20456;-75
2023/06/10 10:46:15;;;;;;;16.60;15.80;;;32.30;56.80;;;;;;4951393;28;20464;-77
2023/06/10 10:48:44;;;;;;;17.17;16.50;;;32.20;56.50;;;;;;4951444;29;20706;-76
2023/06/10 10:51:11;;;;;;;17.17;16.47;;;32.80;54.90;;;;;;4951441;29;20756;-75
2023/06/10 10:53:38;;;;;;;17.70;17.00;;;33.90;53.80;;;;;;4951466;29;20453;-76
2023/06/10 10:56:07;;;;;;;16.70;16.00;;;34.60;52.80;;;;;;4951607;29;20531;-76
2023/06/10 10:58:34;;;;;;;18.00;17.20;;;35.00;52.20;;;;;;4951544;28;20994;-76
2023/06/10 11:01:10;;;;;;;17.73;16.93;;;35.60;52.10;;;;;;4951434;29;20847;-76
2023/06/10 11:03:46;;;;;;;17.17;16.47;;;35.40;50.90;;;;;;4951359;28;20496;-76
2023/06/10 11:06:15;;;;;;;18.00;17.30;;;35.60;50.00;;;;;;4951512;28;20467;-75
2023/06/10 11:08:49;;;;;;;17.33;16.53;;;35.40;50.00;;;;;;4951199;29;20536;-76
2023/06/10 11:11:21;;;;;;;16.60;15.80;;;34.70;51.80;;;;;;4951548;29;20455;-76
2023/06/10 11:14:08;;;;;;;18.33;17.33;;;32.90;54.90;;;;;;4951513;29;21015;-76
2023/06/10 11:16:41;;;;;;;16.40;15.80;;;32.90;55.40;;;;;;4951562;28;20500;-76
2023/06/10 11:19:09;;;;;;;17.80;17.00;;;32.10;56.70;;;;;;4951280;29;20511;-75
2023/06/10 11:21:59;;;;;;;19.07;18.10;;;32.80;55.90;;;;;;4951366;28;20448;-76
2023/06/10 11:24:26;;;;;;;17.97;17.17;;;34.50;53.50;;;;;;4951391;29;20437;-76
2023/06/10 11:26:53;;;;;;;17.80;16.90;;;35.30;52.00;;;;;;4951661;28;20445;-75
2023/06/10 11:29:20;;;;;;;17.50;16.70;;;33.90;51.80;;;;;;4954662;29;20499;-76
2023/06/10 11:31:50;;;;;;;16.00;15.27;;;32.00;55.10;;;;;;4954830;29;20451;-76
2023/06/10 11:34:26;;;;;;;18.17;17.37;;;32.40;55.30;;;;;;4954892;29;20452;-76
2023/06/10 11:36:54;;;;;;;16.87;16.17;;;32.80;54.30;;;;;;4954702;29;20879;-76
2023/06/10 11:39:23;;;;;;;17.30;16.50;;;33.10;53.70;;;;;;4954682;29;20527;-75
2023/06/10 11:41:51;;;;;;;16.20;15.50;;;32.30;54.80;;;;;;4954720;29;20480;-75
2023/06/10 11:44:18;;;;;;;16.93;16.03;;;32.20;56.30;;;;;;4954582;29;20539;-74
2023/06/10 11:46:45;;;;;;;17.27;16.47;;;33.40;54.70;;;;;;4954360;29;20456;-75
2023/06/10 11:49:12;;;;;;;17.50;16.77;;;34.50;51.90;;;;;;4954313;28;20542;-76
2023/06/10 11:51:48;;;;;;;16.67;16.07;;;35.20;50.80;;;;;;4954251;28;20456;-76
2023/06/10 11:54:15;;;;;;;16.87;16.17;;;35.70;49.70;;;;;;4954120;29;20503;-76
2023/06/10 11:56:42;;;;;;;17.43;16.73;;;35.80;49.00;;;;;;4954264;29;20488;-76
2023/06/10 11:59:09;;;;;;;16.90;16.30;;;35.80;49.10;;;;;;4954116;28;20839;-75
2023/06/10 12:01:37;;;;;;;17.63;16.93;;;37.20;48.10;;;;;;4954071;29;20491;-73
2023/06/10 12:04:05;;;;;;;18.90;18.20;;;39.00;45.60;;;;;;4954328;29;20452;-75
2023/06/10 12:06:46;;;;;;;19.90;19.00;;;39.40;45.20;;;;;;4954170;29;20967;-73
2023/06/10 12:09:18;;;;;;;18.50;17.60;;;40.00;42.90;;;;;;4953925;29;20554;-73
2023/06/10 12:11:45;;;;;;;18.27;17.37;;;38.90;43.00;;;;;;4953760;29;20959;-75
2023/06/10 12:14:12;;;;;;;18.47;17.57;;;38.60;43.20;;;;;;4953822;29;20459;-75
2023/06/10 12:16:38;;;;;;;17.80;17.10;;;38.40;43.20;;;;;;4953879;29;20461;-76
2023/06/10 12:19:06;;;;;;;18.13;17.50;;;38.90;43.60;;;;;;4954058;29;20449;-76
2023/06/10 12:21:35;;;;;;;18.40;17.70;;;38.00;42.70;;;;;;4953978;29;20818;-76
2023/06/10 12:24:08;;;;;;;18.80;18.10;;;37.30;44.00;;;;;;4953983;28;20488;-76
2023/06/10 12:26:40;;;;;;;19.00;17.70;;;36.80;45.20;;;;;;4953962;29;20448;-76
2023/06/10 12:29:20;;;;;;;17.50;16.63;;;35.30;46.60;;;;;;4953493;29;20484;-76
2023/06/10 12:32:02;;;;;;;16.83;16.10;;;33.70;48.70;;;;;;4953896;29;20828;-75
2023/06/10 12:34:34;;;;;;;17.10;16.40;;;32.60;50.60;;;;;;4953567;29;20452;-76
2023/06/10 12:37:01;;;;;;;17.10;16.37;;;32.90;50.70;;;;;;4953601;29;20452;-76
2023/06/10 12:39:29;;;;;;;15.93;15.33;;;34.40;48.70;;;;;;4953096;28;20872;-75
2023/06/10 12:41:56;;;;;;;17.00;16.30;;;34.70;48.50;;;;;;4953321;29;20479;-77
2023/06/10 12:44:34;;;;;;;17.43;16.63;;;34.20;49.30;;;;;;4953173;29;20456;-76
2023/06/10 12:47:01;;;;;;;16.73;16.03;;;32.80;50.50;;;;;;4953473;29;20552;-76
2023/06/10 12:49:28;;;;;;;16.30;15.60;;;31.90;52.30;;;;;;4953270;29;20500;-76
2023/06/10 12:51:55;;;;;;;16.00;15.30;;;31.50;53.40;;;;;;4953129;29;20448;-75
2023/06/10 12:54:22;;;;;;;15.00;14.30;;;32.20;52.90;;;;;;4953064;29;20531;-75
2023/06/10 12:56:50;;;;;;;17.43;16.63;;;33.70;50.90;;;;;;4953278;29;20489;-76
2023/06/10 12:59:17;;;;;;;16.47;15.67;;;35.40;48.20;;;;;;4953162;28;20888;-75
2023/06/10 13:01:44;;;;;;;17.67;16.97;;;36.30;46.80;;;;;;4952700;28;20606;-75
2023/06/10 13:04:11;;;;;;;16.87;16.17;;;36.60;44.80;;;;;;4952379;29;20451;-76
2023/06/10 13:06:38;;;;;;;16.97;16.30;;;37.40;44.90;;;;;;4949763;29;20451;-75
2023/06/10 13:09:07;;;;;;;17.40;16.80;;;36.50;45.30;;;;;;4952175;29;20480;-76
2023/06/10 13:11:34;;;;;;;16.47;15.87;;;36.00;46.40;;;;;;4952513;29;20539;-76
2023/06/10 13:14:04;;;;;;;17.53;16.90;;;35.70;46.20;;;;;;4952296;29;20461;-75
2023/06/10 13:16:31;;;;;;;17.20;16.40;;;34.90;46.90;;;;;;4952305;29;20830;-75
2023/06/10 13:18:58;;;;;;;17.77;17.07;;;34.40;48.00;;;;;;4949728;29;20451;-76
2023/06/10 13:21:25;;;;;;;16.90;15.90;;;34.50;47.60;;;;;;4952225;28;20453;-76
2023/06/10 13:23:52;;;;;;;16.87;16.17;;;35.10;47.00;;;;;;4952023;29;20459;-76
2023/06/10 13:26:18;;;;;;;16.50;15.90;;;35.40;45.80;;;;;;4952146;29;20449;-75
2023/06/10 13:28:45;;;;;;;17.07;16.37;;;35.70;46.50;;;;;;4951919;29;20495;-76
2023/06/10 13:31:13;;;;;;;17.27;16.57;;;36.60;45.00;;;;;;4951700;29;20464;-75
2023/06/10 13:33:40;;;;;;;16.90;16.20;;;36.90;44.20;;;;;;4951793;29;20445;-76
2023/06/10 13:36:07;;;;;;;16.87;16.20;;;36.50;44.50;;;;;;4951881;29;20476;-75
2023/06/10 13:38:33;;;;;;;17.00;16.30;;;35.20;45.90;;;;;;4951982;29;20448;-76
2023/06/10 13:41:00;;;;;;;16.40;15.70;;;34.30;47.40;;;;;;4951575;29;20461;-76
2023/06/10 13:43:27;;;;;;;16.07;15.47;;;33.70;47.60;;;;;;4951497;29;20449;-76
2023/06/10 13:45:54;;;;;;;16.77;16.07;;;32.30;49.40;;;;;;4951442;29;20445;-75
2023/06/10 13:48:22;;;;;;;15.43;14.83;;;31.60;50.00;;;;;;4951576;29;20488;-76
2023/06/10 13:50:48;;;;;;;15.90;15.30;;;31.80;49.50;;;;;;4950975;28;20448;-75
2023/06/10 13:53:15;;;;;;;16.23;15.53;;;33.20;48.70;;;;;;4951542;29;20449;-76
2023/06/10 13:55:42;;;;;;;16.77;15.97;;;33.60;48.40;;;;;;4951331;29;20451;-76
2023/06/10 13:58:09;;;;;;;18.67;17.87;;;34.70;47.60;;;;;;4951353;28;20452;-72
2023/06/10 14:00:35;;;;;;;17.20;16.50;;;35.80;46.70;;;;;;4951264;29;20479;-71
2023/06/10 14:03:03;;;;;;;16.70;16.00;;;36.30;45.20;;;;;;4951584;29;20449;-73
2023/06/10 14:05:31;;;;;;;16.70;16.10;;;36.00;45.60;;;;;;4951433;29;20451;-73
2023/06/10 14:07:58;;;;;;;17.10;16.40;;;34.20;46.90;;;;;;4948760;29;20931;-73
2023/06/10 14:10:25;;;;;;;17.37;16.30;;;32.90;49.10;;;;;;4951393;29;20766;-73
2023/06/10 14:12:53;;;;;;;15.80;15.10;;;31.50;50.90;;;;;;4945786;29;20759;-73
2023/06/10 14:15:20;;;;;;;16.03;15.43;;;30.40;53.10;;;;;;4950861;28;20457;-73
2023/06/10 14:17:47;;;;;;;15.63;15.00;;;30.00;54.20;;;;;;4950962;29;20548;-73
2023/06/10 14:20:13;;;;;;;16.13;15.43;;;30.30;54.50;;;;;;4950801;29;20441;-73
2023/06/10 14:22:41;;;;;;;15.50;14.90;;;31.00;53.60;;;;;;4950825;28;20481;-73
2023/06/10 14:25:09;;;;;;;16.67;15.97;;;31.70;52.60;;;;;;4951170;29;20448;-73
2023/06/10 14:27:35;;;;;;;16.37;15.67;;;32.10;51.50;;;;;;4951229;29;20531;-73
2023/06/10 14:30:03;;;;;;;15.60;15.00;;;32.10;50.30;;;;;;4951216;29;20489;-72